sensor_id;sensor_type;location;lat;lon;timestamp;pressure;altitude;pressure_sealevel;temperature;humidity
83104;BME280;72975;48.134;11.630;2023-12-07T00:00:40;95733.22;;;1.84;76.78
83104;BME280;72975;48.134;11.630;2023-12-07T00:03:10;95727.84;;;1.93;76.79
83104;BME280;72975;48.134;11.630;2023-12-07T00:05:38;95727.47;;;1.89;77.25
83104;BME280;72975;48.134;11.630;2023-12-07T00:08:08;95730.22;;;1.94;77.26
83104;BME280;72975;48.134;11.630;2023-12-07T00:10:38;95733.22;;;1.84;77.75
83104;BME280;72975;48.134;11.630;2023-12-07T00:13:06;95737.56;;;1.84;77.87
83104;BME280;72975;48.134;11.630;2023-12-07T00:15:34;95728.69;;;1.80;77.99
83104;BME280;72975;48.134;11.630;2023-12-07T00:18:02;95739.19;;;1.78;78.16
83104;BME280;72975;48.134;11.630;2023-12-07T00:20:32;95733.44;;;1.76;78.31
83104;BME280;72975;48.134;11.630;2023-12-07T00:23:03;95737.56;;;1.91;77.75
83104;BME280;72975;48.134;11.630;2023-12-07T00:25:30;95733.22;;;1.84;77.98
83104;BME280;72975;48.134;11.630;2023-12-07T00:27:59;95733.78;;;1.87;78.03
83104;BME280;72975;48.134;11.630;2023-12-07T00:30:27;95735.81;;;1.78;78.28
83104;BME280;72975;48.134;11.630;2023-12-07T00:32:55;95742.16;;;1.75;78.42
83104;BME280;72975;48.134;11.630;2023-12-07T00:35:23;95744.56;;;1.70;78.80
83104;BME280;72975;48.134;11.630;2023-12-07T00:37:51;95741.75;;;1.78;78.34
83104;BME280;72975;48.134;11.630;2023-12-07T00:40:18;95736.00;;;1.76;78.22
83104;BME280;72975;48.134;11.630;2023-12-07T00:42:46;95741.41;;;1.55;78.86
83104;BME280;72975;48.134;11.630;2023-12-07T00:45:16;95716.72;;;1.48;79.05
83104;BME280;72975;48.134;11.630;2023-12-07T00:47:44;95751.06;;;1.79;78.35
83104;BME280;72975;48.134;11.630;2023-12-07T00:50:15;95751.47;;;1.63;78.55
83104;BME280;72975;48.134;11.630;2023-12-07T00:53:00;95749.75;;;1.51;79.03
83104;BME280;72975;48.134;11.630;2023-12-07T00:55:54;95760.03;;;1.44;79.48
83104;BME280;72975;48.134;11.630;2023-12-07T00:58:24;95754.28;;;1.62;79.14
83104;BME280;72975;48.134;11.630;2023-12-07T01:00:52;95762.00;;;1.49;78.83
83104;BME280;72975;48.134;11.630;2023-12-07T01:03:20;95767.94;;;1.49;78.74
83104;BME280;72975;48.134;11.630;2023-12-07T01:05:51;95761.38;;;1.60;78.32
83104;BME280;72975;48.134;11.630;2023-12-07T01:08:19;95772.09;;;1.50;78.78
83104;BME280;72975;48.134;11.630;2023-12-07T01:10:46;95771.47;;;1.55;78.72
83104;BME280;72975;48.134;11.630;2023-12-07T01:13:14;95779.00;;;1.43;79.13
83104;BME280;72975;48.134;11.630;2023-12-07T01:15:42;95775.06;;;1.34;79.42
83104;BME280;72975;48.134;11.630;2023-12-07T01:18:10;95781.78;;;1.41;79.31
83104;BME280;72975;48.134;11.630;2023-12-07T01:20:37;95773.69;;;1.51;78.73
83104;BME280;72975;48.134;11.630;2023-12-07T01:23:05;95782.00;;;1.40;78.89
83104;BME280;72975;48.134;11.630;2023-12-07T01:25:32;95783.78;;;1.39;79.27
83104;BME280;72975;48.134;11.630;2023-12-07T01:28:00;95781.59;;;1.50;78.95
83104;BME280;72975;48.134;11.630;2023-12-07T01:30:28;95775.47;;;1.24;79.58
83104;BME280;72975;48.134;11.630;2023-12-07T01:32:56;95786.94;;;1.22;79.96
83104;BME280;72975;48.134;11.630;2023-12-07T01:35:23;95789.50;;;1.35;79.16
83104;BME280;72975;48.134;11.630;2023-12-07T01:37:51;95799.00;;;1.28;79.39
83104;BME280;72975;48.134;11.630;2023-12-07T01:40:18;95795.44;;;1.22;79.72
83104;BME280;72975;48.134;11.630;2023-12-07T01:42:52;95794.44;;;1.10;80.18
83104;BME280;72975;48.134;11.630;2023-12-07T01:45:20;95799.78;;;1.08;80.06
83104;BME280;72975;48.134;11.630;2023-12-07T01:47:50;95799.78;;;1.15;80.15
83104;BME280;72975;48.134;11.630;2023-12-07T01:50:20;95805.31;;;1.12;79.99
83104;BME280;72975;48.134;11.630;2023-12-07T01:52:57;95803.75;;;1.24;79.42
83104;BME280;72975;48.134;11.630;2023-12-07T01:55:27;95807.88;;;1.12;79.72
83104;BME280;72975;48.134;11.630;2023-12-07T01:57:56;95811.22;;;0.93;80.54
83104;BME280;72975;48.134;11.630;2023-12-07T02:00:26;95812.25;;;1.05;80.64
83104;BME280;72975;48.134;11.630;2023-12-07T02:02:55;95816.38;;;0.99;80.32
83104;BME280;72975;48.134;11.630;2023-12-07T02:05:24;95810.84;;;1.09;80.21
83104;BME280;72975;48.134;11.630;2023-12-07T02:07:53;95815.41;;;1.20;79.83
83104;BME280;72975;48.134;11.630;2023-12-07T02:10:21;95814.63;;;1.06;80.54
83104;BME280;72975;48.134;11.630;2023-12-07T02:12:49;95821.50;;;0.99;80.60
83104;BME280;72975;48.134;11.630;2023-12-07T02:15:17;95823.88;;;1.01;80.55
83104;BME280;72975;48.134;11.630;2023-12-07T02:18:06;95821.91;;;1.03;80.47
83104;BME280;72975;48.134;11.630;2023-12-07T02:20:44;95830.59;;;1.08;79.64
83104;BME280;72975;48.134;11.630;2023-12-07T02:23:15;95822.09;;;0.88;80.59
83104;BME280;72975;48.134;11.630;2023-12-07T02:27:03;95831.00;;;0.99;80.25
83104;BME280;72975;48.134;11.630;2023-12-07T02:29:30;95836.28;;;0.78;80.59
83104;BME280;72975;48.134;11.630;2023-12-07T02:31:58;95835.53;;;0.90;80.44
83104;BME280;72975;48.134;11.630;2023-12-07T02:34:26;95842.47;;;1.03;80.38
83104;BME280;72975;48.134;11.630;2023-12-07T02:37:00;95834.94;;;0.82;80.60
83104;BME280;72975;48.134;11.630;2023-12-07T02:39:35;95773.03;;;0.50;80.78
83104;BME280;72975;48.134;11.630;2023-12-07T02:42:03;95831.00;;;0.92;80.46
83104;BME280;72975;48.134;11.630;2023-12-07T02:44:36;95836.88;;;0.73;80.77
83104;BME280;72975;48.134;11.630;2023-12-07T02:47:04;95838.00;;;0.51;81.52
83104;BME280;72975;48.134;11.630;2023-12-07T02:49:33;95844.00;;;0.78;80.71
83104;BME280;72975;48.134;11.630;2023-12-07T02:52:03;95843.41;;;0.76;80.47
83104;BME280;72975;48.134;11.630;2023-12-07T02:54:31;95847.94;;;0.73;80.34
83104;BME280;72975;48.134;11.630;2023-12-07T02:56:58;95848.56;;;0.89;80.29
83104;BME280;72975;48.134;11.630;2023-12-07T02:59:26;95841.88;;;0.94;79.98
83104;BME280;72975;48.134;11.630;2023-12-07T03:01:56;95848.75;;;0.74;80.02
83104;BME280;72975;48.134;11.630;2023-12-07T03:04:26;95858.84;;;0.82;79.64
83104;BME280;72975;48.134;11.630;2023-12-07T03:06:56;95859.16;;;0.53;80.88
83104;BME280;72975;48.134;11.630;2023-12-07T03:09:29;95850.28;;;0.62;80.09
83104;BME280;72975;48.134;11.630;2023-12-07T03:11:57;95857.94;;;0.55;79.96
83104;BME280;72975;48.134;11.630;2023-12-07T03:14:34;95859.22;;;0.72;79.76
83104;BME280;72975;48.134;11.630;2023-12-07T03:17:02;95855.19;;;0.50;80.48
83104;BME280;72975;48.134;11.630;2023-12-07T03:19:32;95859.97;;;0.66;79.72
83104;BME280;72975;48.134;11.630;2023-12-07T03:22:00;95862.06;;;0.43;80.30
83104;BME280;72975;48.134;11.630;2023-12-07T03:24:28;95852.13;;;0.33;80.57
83104;BME280;72975;48.134;11.630;2023-12-07T03:26:56;95860.56;;;0.62;79.99
83104;BME280;72975;48.134;11.630;2023-12-07T03:29:23;95849.31;;;0.69;79.46
83104;BME280;72975;48.134;11.630;2023-12-07T03:31:51;95853.59;;;0.49;79.99
83104;BME280;72975;48.134;11.630;2023-12-07T03:34:28;95854.41;;;0.56;79.87
83104;BME280;72975;48.134;11.630;2023-12-07T03:36:55;95854.38;;;0.50;79.68
83104;BME280;72975;48.134;11.630;2023-12-07T03:39:24;95853.22;;;0.52;79.72
83104;BME280;72975;48.134;11.630;2023-12-07T03:41:53;95860.56;;;0.62;79.65
83104;BME280;72975;48.134;11.630;2023-12-07T03:44:23;95859.97;;;0.66;79.09
83104;BME280;72975;48.134;11.630;2023-12-07T03:46:56;95861.78;;;0.72;78.96
83104;BME280;72975;48.134;11.630;2023-12-07T03:49:24;95864.66;;;0.56;79.02
83104;BME280;72975;48.134;11.630;2023-12-07T03:51:54;95853.84;;;0.67;78.87
83104;BME280;72975;48.134;11.630;2023-12-07T03:54:25;95861.72;;;0.53;79.25
83104;BME280;72975;48.134;11.630;2023-12-07T03:56:52;95855.19;;;0.57;79.10
83104;BME280;72975;48.134;11.630;2023-12-07T03:59:20;95863.50;;;0.52;79.13
83104;BME280;72975;48.134;11.630;2023-12-07T04:01:47;95864.06;;;0.54;78.64
83104;BME280;72975;48.134;11.630;2023-12-07T04:04:15;95865.50;;;0.63;78.22
83104;BME280;72975;48.134;11.630;2023-12-07T04:06:43;95867.84;;;0.58;78.46
83104;BME280;72975;48.134;11.630;2023-12-07T04:09:11;95868.03;;;0.57;78.21
83104;BME280;72975;48.134;11.630;2023-12-07T04:11:41;95873.03;;;0.65;77.87
83104;BME280;72975;48.134;11.630;2023-12-07T04:14:09;95873.59;;;0.60;77.84
83104;BME280;72975;48.134;11.630;2023-12-07T04:16:39;95874.19;;;0.62;77.44
83104;BME280;72975;48.134;11.630;2023-12-07T04:19:09;95873.03;;;0.65;77.45
83104;BME280;72975;48.134;11.630;2023-12-07T04:21:41;95876.34;;;0.65;77.33
83104;BME280;72975;48.134;11.630;2023-12-07T04:24:09;95877.38;;;0.71;77.21
83104;BME280;72975;48.134;11.630;2023-12-07T04:26:40;95879.38;;;0.76;77.09
83104;BME280;72975;48.134;11.630;2023-12-07T04:29:08;95878.53;;;0.68;76.80
83104;BME280;72975;48.134;11.630;2023-12-07T04:31:37;95885.06;;;0.71;76.91
83104;BME280;72975;48.134;11.630;2023-12-07T04:34:05;95883.63;;;0.55;77.34
83104;BME280;72975;48.134;11.630;2023-12-07T04:36:33;95892.91;;;0.56;77.44
83104;BME280;72975;48.134;11.630;2023-12-07T04:39:00;95894.50;;;0.57;77.56
83104;BME280;72975;48.134;11.630;2023-12-07T04:41:28;95889.53;;;0.43;78.03
83104;BME280;72975;48.134;11.630;2023-12-07T04:43:58;95900.75;;;0.42;78.21
83104;BME280;72975;48.134;11.630;2023-12-07T04:46:26;95901.22;;;0.52;78.25
83104;BME280;72975;48.134;11.630;2023-12-07T04:49:03;95903.66;;;0.73;77.65
83104;BME280;72975;48.134;11.630;2023-12-07T04:51:34;95905.09;;;0.41;78.10
83104;BME280;72975;48.134;11.630;2023-12-07T04:54:03;95901.06;;;0.25;78.33
83104;BME280;72975;48.134;11.630;2023-12-07T04:56:42;95908.59;;;0.27;78.47
83104;BME280;72975;48.134;11.630;2023-12-07T04:59:12;95907.28;;;0.44;77.96
83104;BME280;72975;48.134;11.630;2023-12-07T05:01:44;95908.22;;;0.36;78.53
83104;BME280;72975;48.134;11.630;2023-12-07T05:04:16;95905.72;;;0.43;78.20
83104;BME280;72975;48.134;11.630;2023-12-07T05:06:45;95908.88;;;0.45;78.26
83104;BME280;72975;48.134;11.630;2023-12-07T05:09:12;95903.53;;;0.40;78.34
83104;BME280;72975;48.134;11.630;2023-12-07T05:11:43;95899.03;;;0.55;77.81
83104;BME280;72975;48.134;11.630;2023-12-07T05:14:13;95901.75;;;0.47;78.03
83104;BME280;72975;48.134;11.630;2023-12-07T05:16:45;95900.34;;;0.38;78.09
83104;BME280;72975;48.134;11.630;2023-12-07T05:19:15;95897.81;;;0.45;77.66
83104;BME280;72975;48.134;11.630;2023-12-07T05:21:44;95895.41;;;0.36;78.14
83104;BME280;72975;48.134;11.630;2023-12-07T05:24:12;95897.00;;;0.44;77.73
83104;BME280;72975;48.134;11.630;2023-12-07T05:26:43;95900.75;;;0.42;78.25
83104;BME280;72975;48.134;11.630;2023-12-07T05:29:14;95898.38;;;0.40;77.83
83104;BME280;72975;48.134;11.630;2023-12-07T05:31:42;95838.31;;;-0.41;78.66
83104;BME280;72975;48.134;11.630;2023-12-07T05:34:11;95900.94;;;0.40;77.63
83104;BME280;72975;48.134;11.630;2023-12-07T05:36:41;95899.81;;;0.49;77.45
83104;BME280;72975;48.134;11.630;2023-12-07T05:39:09;95900.16;;;0.40;77.30
83104;BME280;72975;48.134;11.630;2023-12-07T05:41:38;95897.16;;;0.36;77.34
83104;BME280;72975;48.134;11.630;2023-12-07T05:44:10;95895.75;;;0.27;77.56
83104;BME280;72975;48.134;11.630;2023-12-07T05:46:41;95893.56;;;0.24;77.57
83104;BME280;72975;48.134;11.630;2023-12-07T05:49:11;95897.53;;;0.33;77.37
83104;BME280;72975;48.134;11.630;2023-12-07T05:51:40;95895.13;;;0.25;77.63
83104;BME280;72975;48.134;11.630;2023-12-07T05:54:08;95896.91;;;0.24;77.89
83104;BME280;72975;48.134;11.630;2023-12-07T05:56:35;95896.59;;;-0.01;78.41
83104;BME280;72975;48.134;11.630;2023-12-07T05:59:03;95902.19;;;0.16;78.09
83104;BME280;72975;48.134;11.630;2023-12-07T06:01:31;95901.56;;;0.08;78.50
83104;BME280;72975;48.134;11.630;2023-12-07T06:03:59;95894.75;;;-0.07;79.27
83104;BME280;72975;48.134;11.630;2023-12-07T06:06:30;95896.06;;;0.11;78.74
83104;BME280;72975;48.134;11.630;2023-12-07T06:08:58;95895.19;;;-0.03;79.11
83104;BME280;72975;48.134;11.630;2023-12-07T06:11:27;95893.88;;;0.08;78.86
83104;BME280;72975;48.134;11.630;2023-12-07T06:13:55;95897.16;;;0.02;78.93
83104;BME280;72975;48.134;11.630;2023-12-07T06:16:29;95893.00;;;0.00;78.85
83104;BME280;72975;48.134;11.630;2023-12-07T06:18:56;95893.78;;;-0.06;79.20
83104;BME280;72975;48.134;11.630;2023-12-07T06:21:24;95892.66;;;-0.24;79.65
83104;BME280;72975;48.134;11.630;2023-12-07T06:23:54;95898.50;;;-0.37;80.33
83104;BME280;72975;48.134;11.630;2023-12-07T06:26:22;95895.13;;;-0.10;79.10
83104;BME280;72975;48.134;11.630;2023-12-07T06:28:50;95898.25;;;-0.14;79.42
83104;BME280;72975;48.134;11.630;2023-12-07T06:31:17;95900.97;;;-0.22;79.49
83104;BME280;72975;48.134;11.630;2023-12-07T06:33:49;95910.03;;;-0.20;79.19
83104;BME280;72975;48.134;11.630;2023-12-07T06:36:23;95905.63;;;-0.32;79.69
83104;BME280;72975;48.134;11.630;2023-12-07T06:38:51;95899.75;;;-0.26;79.50
83104;BME280;72975;48.134;11.630;2023-12-07T06:41:19;95908.97;;;-0.32;79.60
83104;BME280;72975;48.134;11.630;2023-12-07T06:43:48;95904.34;;;-0.43;79.88
83104;BME280;72975;48.134;11.630;2023-12-07T06:46:18;95908.75;;;-0.37;80.17
83104;BME280;72975;48.134;11.630;2023-12-07T06:48:48;95913.75;;;-0.50;80.69
83104;BME280;72975;48.134;11.630;2023-12-07T06:51:20;95912.16;;;-0.51;80.37
83104;BME280;72975;48.134;11.630;2023-12-07T06:53:49;95916.56;;;-0.45;80.27
83104;BME280;72975;48.134;11.630;2023-12-07T06:56:17;95922.41;;;-0.51;80.46
83104;BME280;72975;48.134;11.630;2023-12-07T06:58:44;95922.09;;;-0.42;79.95
83104;BME280;72975;48.134;11.630;2023-12-07T07:01:14;95924.44;;;-0.68;80.79
83104;BME280;72975;48.134;11.630;2023-12-07T07:03:49;95924.50;;;-0.40;79.66
83104;BME280;72975;48.134;11.630;2023-12-07T07:06:19;95925.78;;;-0.72;81.18
83104;BME280;72975;48.134;11.630;2023-12-07T07:08:47;95921.00;;;-0.54;81.25
83104;BME280;72975;48.134;11.630;2023-12-07T07:11:16;95922.53;;;-0.38;80.31
83104;BME280;72975;48.134;11.630;2023-12-07T07:13:51;95921.84;;;-0.25;79.92
83104;BME280;72975;48.134;11.630;2023-12-07T07:16:18;95917.16;;;-0.22;79.53
83104;BME280;72975;48.134;11.630;2023-12-07T07:18:46;95931.78;;;-0.16;79.19
83104;BME280;72975;48.134;11.630;2023-12-07T07:21:20;95919.91;;;0.11;78.76
83104;BME280;72975;48.134;11.630;2023-12-07T07:23:57;95917.94;;;0.07;78.47
83104;BME280;72975;48.134;11.630;2023-12-07T07:26:25;95924.06;;;0.12;78.48
83104;BME280;72975;48.134;11.630;2023-12-07T07:28:53;95925.81;;;0.40;77.67
83104;BME280;72975;48.134;11.630;2023-12-07T07:31:26;95925.69;;;0.54;77.20
83104;BME280;72975;48.134;11.630;2023-12-07T07:34:06;95923.72;;;0.56;77.15
83104;BME280;72975;48.134;11.630;2023-12-07T07:36:36;95923.59;;;0.64;76.28
83104;BME280;72975;48.134;11.630;2023-12-07T07:39:28;95931.56;;;0.89;75.52
83104;BME280;72975;48.134;11.630;2023-12-07T07:42:09;95926.47;;;1.02;75.41
83104;BME280;72975;48.134;11.630;2023-12-07T07:45:02;95928.66;;;1.05;75.15
83104;BME280;72975;48.134;11.630;2023-12-07T07:47:37;95924.19;;;1.34;73.67
83104;BME280;72975;48.134;11.630;2023-12-07T07:50:11;95926.59;;;1.68;72.95
83104;BME280;72975;48.134;11.630;2023-12-07T07:52:41;95922.22;;;1.89;71.97
83104;BME280;72975;48.134;11.630;2023-12-07T07:55:15;95920.84;;;1.66;71.78
83104;BME280;72975;48.134;11.630;2023-12-07T07:57:42;95924.22;;;1.93;71.34
83104;BME280;72975;48.134;11.630;2023-12-07T08:00:14;95926.06;;;2.64;69.13
83104;BME280;72975;48.134;11.630;2023-12-07T08:02:46;95923.25;;;2.78;67.91
83104;BME280;72975;48.134;11.630;2023-12-07T08:05:15;95873.47;;;2.27;67.96
83104;BME280;72975;48.134;11.630;2023-12-07T08:07:42;95922.03;;;2.81;67.81
83104;BME280;72975;48.134;11.630;2023-12-07T08:10:16;95922.81;;;2.88;68.13
83104;BME280;72975;48.134;11.630;2023-12-07T08:12:47;95927.53;;;3.29;65.45
83104;BME280;72975;48.134;11.630;2023-12-07T08:15:14;95916.97;;;3.68;65.32
83104;BME280;72975;48.134;11.630;2023-12-07T08:17:42;95916.81;;;3.63;64.64
83104;BME280;72975;48.134;11.630;2023-12-07T08:20:11;95922.31;;;4.42;62.16
83104;BME280;72975;48.134;11.630;2023-12-07T08:22:41;95923.50;;;4.57;60.64
83104;BME280;72975;48.134;11.630;2023-12-07T08:25:10;95914.63;;;4.71;61.24
83104;BME280;72975;48.134;11.630;2023-12-07T08:27:39;95912.59;;;4.73;60.15
83104;BME280;72975;48.134;11.630;2023-12-07T08:30:08;95909.00;;;5.23;58.53
83104;BME280;72975;48.134;11.630;2023-12-07T08:32:37;95923.09;;;5.08;58.44
83104;BME280;72975;48.134;11.630;2023-12-07T08:35:06;95916.06;;;5.16;57.90
83104;BME280;72975;48.134;11.630;2023-12-07T08:37:34;95914.88;;;5.71;56.70
83104;BME280;72975;48.134;11.630;2023-12-07T08:40:07;95916.81;;;5.04;57.12
83104;BME280;72975;48.134;11.630;2023-12-07T08:42:39;95913.19;;;5.77;55.16
83104;BME280;72975;48.134;11.630;2023-12-07T08:45:09;95907.19;;;5.23;56.29
83104;BME280;72975;48.134;11.630;2023-12-07T08:47:37;95907.41;;;6.05;54.62
83104;BME280;72975;48.134;11.630;2023-12-07T08:50:05;95901.75;;;6.31;54.93
83104;BME280;72975;48.134;11.630;2023-12-07T08:52:39;95899.66;;;5.75;54.44
83104;BME280;72975;48.134;11.630;2023-12-07T08:55:19;95906.84;;;6.03;53.46
83104;BME280;72975;48.134;11.630;2023-12-07T08:57:49;95908.28;;;6.34;52.68
83104;BME280;72975;48.134;11.630;2023-12-07T09:00:21;95907.63;;;6.27;51.88
83104;BME280;72975;48.134;11.630;2023-12-07T09:02:54;95905.13;;;6.20;52.50
83104;BME280;72975;48.134;11.630;2023-12-07T09:05:22;95906.59;;;6.39;51.77
83104;BME280;72975;48.134;11.630;2023-12-07T09:07:52;95909.75;;;6.93;50.53
83104;BME280;72975;48.134;11.630;2023-12-07T09:10:20;95910.88;;;6.45;52.03
83104;BME280;72975;48.134;11.630;2023-12-07T09:12:48;95908.13;;;6.75;49.49
83104;BME280;72975;48.134;11.630;2023-12-07T09:15:18;95901.66;;;5.91;50.55
83104;BME280;72975;48.134;11.630;2023-12-07T09:17:49;95902.97;;;6.40;49.50
83104;BME280;72975;48.134;11.630;2023-12-07T09:20:20;95900.59;;;6.62;48.87
83104;BME280;72975;48.134;11.630;2023-12-07T09:22:47;95900.34;;;7.04;49.02
83104;BME280;72975;48.134;11.630;2023-12-07T09:25:16;95891.06;;;7.64;48.25
83104;BME280;72975;48.134;11.630;2023-12-07T09:27:45;95896.94;;;7.60;48.39
83104;BME280;72975;48.134;11.630;2023-12-07T09:30:13;95898.06;;;7.81;47.11
83104;BME280;72975;48.134;11.630;2023-12-07T09:32:41;95901.09;;;7.16;46.17
83104;BME280;72975;48.134;11.630;2023-12-07T09:35:12;95895.91;;;8.28;44.52
83104;BME280;72975;48.134;11.630;2023-12-07T09:37:49;95887.72;;;8.36;44.75
83104;BME280;72975;48.134;11.630;2023-12-07T09:40:18;95888.31;;;8.60;42.76
83104;BME280;72975;48.134;11.630;2023-12-07T09:42:49;95885.88;;;9.19;43.28
83104;BME280;72975;48.134;11.630;2023-12-07T09:45:18;95885.94;;;9.02;41.47
83104;BME280;72975;48.134;11.630;2023-12-07T09:47:58;95880.38;;;8.71;40.25
83104;BME280;72975;48.134;11.630;2023-12-07T09:50:27;95879.47;;;9.63;37.26
83104;BME280;72975;48.134;11.630;2023-12-07T09:53:00;95881.75;;;9.55;38.05
83104;BME280;72975;48.134;11.630;2023-12-07T09:55:35;95877.63;;;9.59;38.31
83104;BME280;72975;48.134;11.630;2023-12-07T09:58:10;95871.00;;;9.78;38.24
83104;BME280;72975;48.134;11.630;2023-12-07T10:00:38;95875.28;;;9.57;35.24
83104;BME280;72975;48.134;11.630;2023-12-07T10:03:06;95877.44;;;9.11;35.54
83104;BME280;72975;48.134;11.630;2023-12-07T10:06:12;95869.25;;;9.25;35.66
83104;BME280;72975;48.134;11.630;2023-12-07T10:08:40;95868.00;;;9.32;34.17
83104;BME280;72975;48.134;11.630;2023-12-07T10:11:15;95856.47;;;9.50;35.31
83104;BME280;72975;48.134;11.630;2023-12-07T10:13:53;95859.69;;;9.94;33.24
83104;BME280;72975;48.134;11.630;2023-12-07T10:16:29;95848.97;;;9.96;31.80
83104;BME280;72975;48.134;11.630;2023-12-07T10:18:57;95858.19;;;8.86;32.56
83104;BME280;72975;48.134;11.630;2023-12-07T10:21:59;95856.34;;;8.26;35.79
83104;BME280;72975;48.134;11.630;2023-12-07T10:24:27;95859.59;;;8.98;33.57
83104;BME280;72975;48.134;11.630;2023-12-07T10:26:55;95866.03;;;8.91;31.39
83104;BME280;72975;48.134;11.630;2023-12-07T10:29:30;95858.06;;;9.88;32.16
83104;BME280;72975;48.134;11.630;2023-12-07T10:32:03;95861.03;;;9.38;35.53
83104;BME280;72975;48.134;11.630;2023-12-07T10:34:40;95854.03;;;8.90;35.35
83104;BME280;72975;48.134;11.630;2023-12-07T10:37:08;95845.75;;;9.78;33.05
83104;BME280;72975;48.134;11.630;2023-12-07T10:39:37;95843.09;;;10.10;31.12
83104;BME280;72975;48.134;11.630;2023-12-07T10:42:09;95838.22;;;9.50;33.16
83104;BME280;72975;48.134;11.630;2023-12-07T10:44:41;95839.91;;;10.03;33.25
83104;BME280;72975;48.134;11.630;2023-12-07T10:47:13;95840.63;;;10.31;35.96
83104;BME280;72975;48.134;11.630;2023-12-07T10:50:14;95834.09;;;10.95;32.86
83104;BME280;72975;48.134;11.630;2023-12-07T10:52:53;95773.84;;;10.30;32.21
83104;BME280;72975;48.134;11.630;2023-12-07T10:55:52;95830.06;;;10.63;32.58
83104;BME280;72975;48.134;11.630;2023-12-07T10:58:23;95826.31;;;9.96;32.64
83104;BME280;72975;48.134;11.630;2023-12-07T11:00:59;95821.19;;;9.74;31.87
83104;BME280;72975;48.134;11.630;2023-12-07T11:03:29;95821.78;;;10.18;32.58
83104;BME280;72975;48.134;11.630;2023-12-07T11:06:06;95821.03;;;9.22;34.87
83104;BME280;72975;48.134;11.630;2023-12-07T11:09:00;95814.53;;;9.51;32.96
83104;BME280;72975;48.134;11.630;2023-12-07T11:11:48;95819.00;;;10.40;30.69
83104;BME280;72975;48.134;11.630;2023-12-07T11:14:19;95815.44;;;10.61;28.78
83104;BME280;72975;48.134;11.630;2023-12-07T11:16:53;95812.63;;;10.16;30.49
83104;BME280;72975;48.134;11.630;2023-12-07T11:22:11;95806.16;;;9.81;31.73
83104;BME280;72975;48.134;11.630;2023-12-07T11:24:56;95806.50;;;10.42;30.93
83104;BME280;72975;48.134;11.630;2023-12-07T11:27:43;95805.66;;;10.27;30.72
83104;BME280;72975;48.134;11.630;2023-12-07T11:30:19;95811.63;;;9.48;30.51
83104;BME280;72975;48.134;11.630;2023-12-07T11:32:47;95802.69;;;9.71;31.61
83104;BME280;72975;48.134;11.630;2023-12-07T11:35:15;95805.25;;;9.66;32.55
83104;BME280;72975;48.134;11.630;2023-12-07T11:38:09;95794.47;;;9.89;32.33
83104;BME280;72975;48.134;11.630;2023-12-07T11:40:42;95781.91;;;9.81;30.94
83104;BME280;72975;48.134;11.630;2023-12-07T11:43:17;95790.19;;;9.09;31.98
83104;BME280;72975;48.134;11.630;2023-12-07T11:45:51;95778.69;;;9.69;32.78
83104;BME280;72975;48.134;11.630;2023-12-07T11:48:20;95777.44;;;9.76;32.16
83104;BME280;72975;48.134;11.630;2023-12-07T11:51:01;95781.78;;;9.29;33.45
83104;BME280;72975;48.134;11.630;2023-12-07T11:53:34;95773.31;;;9.80;33.55
83104;BME280;72975;48.134;11.630;2023-12-07T11:56:08;95775.78;;;8.96;34.59
83104;BME280;72975;48.134;11.630;2023-12-07T11:58:38;95774.63;;;9.14;34.72
83104;BME280;72975;48.134;11.630;2023-12-07T12:01:08;95763.25;;;9.57;34.59
83104;BME280;72975;48.134;11.630;2023-12-07T12:03:49;95773.31;;;9.80;33.55
83104;BME280;72975;48.134;11.630;2023-12-07T12:06:17;95760.47;;;9.69;31.91
83104;BME280;72975;48.134;11.630;2023-12-07T12:08:49;95759.44;;;9.75;31.29
83104;BME280;72975;48.134;11.630;2023-12-07T12:11:16;95763.16;;;9.84;31.26
83104;BME280;72975;48.134;11.630;2023-12-07T12:13:47;95761.59;;;9.88;29.98
83104;BME280;72975;48.134;11.630;2023-12-07T12:16:21;95760.38;;;10.01;29.15
83104;BME280;72975;48.134;11.630;2023-12-07T12:18:52;95761.25;;;9.74;30.01
83104;BME280;72975;48.134;11.630;2023-12-07T12:22:01;95766.03;;;9.13;30.81
83104;BME280;72975;48.134;11.630;2023-12-07T12:24:36;95754.72;;;9.30;30.92
83104;BME280;72975;48.134;11.630;2023-12-07T12:27:08;95748.44;;;9.26;30.43
83104;BME280;72975;48.134;11.630;2023-12-07T12:29:40;95751.53;;;9.60;31.17
83104;BME280;72975;48.134;11.630;2023-12-07T12:32:14;95750.06;;;8.73;32.37
83104;BME280;72975;48.134;11.630;2023-12-07T12:34:53;95736.38;;;9.51;32.87
83104;BME280;72975;48.134;11.630;2023-12-07T12:37:24;95721.97;;;9.39;33.39
83104;BME280;72975;48.134;11.630;2023-12-07T12:39:55;95719.25;;;9.61;34.20
83104;BME280;72975;48.134;11.630;2023-12-07T12:42:36;95739.22;;;9.13;34.69
83104;BME280;72975;48.134;11.630;2023-12-07T12:45:09;95741.94;;;9.28;34.26
83104;BME280;72975;48.134;11.630;2023-12-07T12:47:43;95730.78;;;9.01;35.16
83104;BME280;72975;48.134;11.630;2023-12-07T12:50:56;95732.34;;;9.02;35.70
83104;BME280;72975;48.134;11.630;2023-12-07T12:53:33;95731.28;;;9.30;34.96
83104;BME280;72975;48.134;11.630;2023-12-07T12:56:30;95728.41;;;8.99;35.60
83104;BME280;72975;48.134;11.630;2023-12-07T12:59:03;95716.25;;;9.10;36.55
83104;BME280;72975;48.134;11.630;2023-12-07T13:01:34;95716.22;;;8.73;36.53
83104;BME280;72975;48.134;11.630;2023-12-07T13:04:05;95718.25;;;8.98;36.35
83104;BME280;72975;48.134;11.630;2023-12-07T13:06:41;95717.44;;;9.24;35.16
83104;BME280;72975;48.134;11.630;2023-12-07T13:09:16;95703.91;;;8.63;35.88
83104;BME280;72975;48.134;11.630;2023-12-07T13:11:49;95699.28;;;8.70;35.18
83104;BME280;72975;48.134;11.630;2023-12-07T13:14:20;95699.06;;;9.04;33.84
83104;BME280;72975;48.134;11.630;2023-12-07T13:16:54;95697.13;;;8.62;34.79
83104;BME280;72975;48.134;11.630;2023-12-07T13:19:27;95695.88;;;8.65;35.87
83104;BME280;72975;48.134;11.630;2023-12-07T13:21:57;95694.34;;;8.42;35.06
83104;BME280;72975;48.134;11.630;2023-12-07T13:24:28;95695.19;;;8.79;35.90
83104;BME280;72975;48.134;11.630;2023-12-07T13:27:07;95692.09;;;8.56;35.43